Time;durP1;ratioP1;P1;durP2;ratioP2;P2;SDS_P1;SDS_P2;PMS_P1;PMS_P2;Temp;Humidity;BMP_temperature;BMP_pressure;BME280_temperature;BME280_humidity;BME280_pressure;Samples;Min_cycle;Max_cycle;Signal;HPM_P1;HPM_P2
2022/12/02 05:03:50;;;;;;;10.30;7.40;;;5.00;99.90;;;;;;5918592;23;20220;-68
2022/12/02 05:06:16;;;;;;;10.60;8.07;;;5.00;99.90;;;;;;4944947;29;20212;-68
2022/12/02 05:08:41;;;;;;;10.27;6.63;;;5.00;99.90;;;;;;4945728;29;20307;-70
2022/12/02 05:11:07;;;;;;;10.07;6.93;;;5.00;99.90;;;;;;4942929;29;20224;-70
2022/12/02 05:13:32;;;;;;;10.90;7.10;;;5.00;99.90;;;;;;4943584;29;20534;-68
2022/12/02 05:15:58;;;;;;;9.70;6.93;;;5.00;99.90;;;;;;4943586;29;20181;-70
2022/12/02 05:18:24;;;;;;;8.67;6.57;;;5.00;99.90;;;;;;4943317;29;20217;-69
2022/12/02 05:20:49;;;;;;;9.07;7.47;;;5.00;99.90;;;;;;4943535;29;20196;-69
2022/12/02 05:23:15;;;;;;;10.67;7.07;;;5.10;99.90;;;;;;4942700;29;20182;-70
2022/12/02 05:25:40;;;;;;;10.43;8.17;;;5.10;99.90;;;;;;4937596;29;20697;-71
2022/12/02 05:28:06;;;;;;;18.60;9.17;;;5.10;99.90;;;;;;4938355;29;20208;-68
2022/12/02 05:30:32;;;;;;;14.30;9.03;;;5.10;99.90;;;;;;4939034;29;20178;-70
2022/12/02 05:32:57;;;;;;;17.27;8.33;;;5.10;99.90;;;;;;4939152;29;20902;-69
2022/12/02 05:35:23;;;;;;;14.10;7.40;;;5.10;99.90;;;;;;4938848;29;20534;-70
2022/12/02 05:37:48;;;;;;;9.40;7.10;;;5.10;99.90;;;;;;4938183;29;20181;-69
2022/12/02 05:40:14;;;;;;;17.80;7.53;;;5.10;99.90;;;;;;4938993;29;20198;-69
2022/12/02 05:42:40;;;;;;;12.90;8.97;;;5.10;99.90;;;;;;4936511;29;20188;-73
2022/12/02 05:45:19;;;;;;;11.63;8.43;;;5.10;99.90;;;;;;4938384;29;20196;-73
2022/12/02 05:47:51;;;;;;;18.40;8.07;;;5.10;99.90;;;;;;4935370;29;20244;-69
2022/12/02 05:50:18;;;;;;;12.35;7.88;;;5.10;99.90;;;;;;4936305;29;20623;-66
2022/12/02 05:52:44;;;;;;;10.95;7.40;;;5.10;99.90;;;;;;4936224;29;20183;-71
2022/12/02 05:55:16;;;;;;;12.93;8.10;;;5.00;99.90;;;;;;4936200;29;20208;-69
2022/12/02 05:57:42;;;;;;;15.35;8.30;;;5.00;99.90;;;;;;4936121;29;20176;-69
2022/12/02 06:00:08;;;;;;;12.70;7.50;;;5.00;99.90;;;;;;4936419;29;20252;-68
2022/12/02 06:02:40;;;;;;;10.20;7.30;;;5.00;99.90;;;;;;4936080;29;20407;-71
2022/12/02 06:05:21;;;;;;;12.90;8.25;;;5.00;99.90;;;;;;4935923;29;20290;-72
2022/12/02 06:07:50;;;;;;;14.25;6.57;;;5.00;99.90;;;;;;4936195;29;20177;-66
2022/12/02 06:10:22;;;;;;;13.90;8.20;;;5.00;99.90;;;;;;4935768;29;20211;-69
2022/12/02 06:12:49;;;;;;;12.05;7.03;;;5.00;99.90;;;;;;4935709;29;20203;-69
2022/12/02 06:15:15;;;;;;;10.63;7.15;;;5.00;99.90;;;;;;4935906;29;20191;-68
2022/12/02 06:17:41;;;;;;;13.33;9.40;;;5.00;99.90;;;;;;4935831;29;20170;-69
2022/12/02 06:20:29;;;;;;;14.23;10.03;;;5.00;99.90;;;;;;4934606;29;20440;-72
2022/12/02 06:22:55;;;;;;;13.18;7.32;;;4.90;99.90;;;;;;4934208;29;20174;-71
2022/12/02 06:25:28;;;;;;;15.85;8.23;;;4.90;99.90;;;;;;4935782;29;20198;-71
2022/12/02 06:27:58;;;;;;;17.98;10.20;;;4.90;99.90;;;;;;4935850;29;20180;-70
2022/12/02 06:30:24;;;;;;;15.00;10.32;;;4.90;99.90;;;;;;4935727;29;20234;-72
2022/12/02 06:32:56;;;;;;;14.93;8.50;;;4.90;99.90;;;;;;4935525;29;20170;-69
2022/12/02 06:35:30;;;;;;;13.88;8.85;;;4.80;99.90;;;;;;4935688;29;20276;-69
2022/12/02 06:38:00;;;;;;;10.93;7.82;;;4.80;99.90;;;;;;4935811;29;20683;-70
2022/12/02 06:40:30;;;;;;;18.00;10.07;;;4.80;99.90;;;;;;4936525;29;20182;-68
2022/12/02 06:43:00;;;;;;;15.30;8.00;;;4.70;99.90;;;;;;4939505;29;20244;-70
2022/12/02 06:45:31;;;;;;;10.65;7.97;;;4.80;99.90;;;;;;4939196;29;20201;-66
2022/12/02 06:48:00;;;;;;;15.30;9.27;;;4.80;99.90;;;;;;4939479;29;20195;-69
2022/12/02 06:50:33;;;;;;;15.82;7.78;;;4.80;99.90;;;;;;4939487;29;20228;-68
2022/12/02 06:53:27;;;;;;;21.10;10.75;;;4.80;99.90;;;;;;4937717;29;20180;-68
2022/12/02 06:56:03;;;;;;;13.80;7.38;;;4.90;99.90;;;;;;4938582;29;20233;-68
2022/12/02 06:58:38;;;;;;;15.20;9.27;;;4.80;99.90;;;;;;4939153;29;20256;-67
2022/12/02 07:01:06;;;;;;;12.18;8.65;;;4.90;99.90;;;;;;4939240;29;20202;-64
2022/12/02 07:03:35;;;;;;;14.73;9.15;;;4.90;99.90;;;;;;4938765;29;20182;-71
2022/12/02 07:06:12;;;;;;;14.07;8.93;;;4.90;99.90;;;;;;4939148;29;20186;-71
2022/12/02 07:08:38;;;;;;;13.50;8.55;;;4.90;99.90;;;;;;4938961;29;20204;-70
2022/12/02 07:11:13;;;;;;;17.97;9.50;;;4.90;99.90;;;;;;4939004;29;20665;-69
2022/12/02 07:13:39;;;;;;;14.98;8.70;;;4.80;99.90;;;;;;4937065;29;20184;-69
2022/12/02 07:16:35;;;;;;;13.27;9.20;;;4.80;99.90;;;;;;4938700;29;20171;-68
2022/12/02 07:19:01;;;;;;;15.15;9.07;;;4.80;99.90;;;;;;4937733;29;20266;-69
2022/12/02 07:21:27;;;;;;;18.00;9.63;;;4.80;99.90;;;;;;4938800;29;20230;-70
2022/12/02 07:23:53;;;;;;;11.80;9.13;;;4.80;99.90;;;;;;4938125;29;20535;-70
2022/12/02 07:26:19;;;;;;;12.93;8.20;;;4.90;99.90;;;;;;4937757;29;20542;-69
2022/12/02 07:28:45;;;;;;;13.40;8.60;;;4.90;99.90;;;;;;4938837;29;20276;-70
2022/12/02 07:31:25;;;;;;;15.20;7.93;;;4.90;99.90;;;;;;4938731;29;20175;-69
2022/12/02 07:33:51;;;;;;;19.95;9.50;;;4.90;99.90;;;;;;4936552;29;20204;-68
2022/12/02 07:36:17;;;;;;;12.07;8.30;;;4.90;99.90;;;;;;4938918;29;20174;-70
2022/12/02 07:38:43;;;;;;;19.00;9.73;;;4.90;99.90;;;;;;4938369;29;20498;-69
2022/12/02 07:41:08;;;;;;;22.40;9.10;;;5.00;99.90;;;;;;4938589;29;20174;-69
2022/12/02 07:43:34;;;;;;;14.43;9.87;;;5.00;99.90;;;;;;4938055;29;20415;-70
2022/12/02 07:46:00;;;;;;;11.10;8.87;;;5.00;99.90;;;;;;4938829;29;20183;-70
2022/12/02 07:48:25;;;;;;;14.20;10.70;;;5.00;99.90;;;;;;4938384;29;20209;-69
2022/12/02 07:50:51;;;;;;;13.33;8.60;;;4.90;99.90;;;;;;4938388;29;20400;-69
2022/12/02 07:53:17;;;;;;;12.27;8.03;;;5.00;99.90;;;;;;4937827;29;20180;-71
2022/12/02 07:55:43;;;;;;;15.40;8.97;;;5.00;99.90;;;;;;4938786;29;20466;-69
2022/12/02 07:58:08;;;;;;;13.90;7.60;;;5.00;99.90;;;;;;4938043;29;20208;-68
2022/12/02 08:00:35;;;;;;;13.67;8.03;;;5.10;99.90;;;;;;4938363;29;20222;-71
2022/12/02 08:03:00;;;;;;;13.70;8.00;;;5.10;99.90;;;;;;4937863;29;20170;-70
2022/12/02 08:05:27;;;;;;;12.07;7.47;;;5.20;99.90;;;;;;4937274;29;20211;-70
2022/12/02 08:07:53;;;;;;;16.52;10.10;;;5.20;99.90;;;;;;4935598;29;20183;-69
2022/12/02 08:10:19;;;;;;;13.93;9.18;;;5.20;99.90;;;;;;4919061;29;20210;-68
2022/12/02 08:12:45;;;;;;;19.90;9.70;;;5.20;99.90;;;;;;4918860;29;20186;-67
2022/12/02 08:15:12;;;;;;;14.50;7.83;;;5.20;99.90;;;;;;4924556;29;20659;-68
2022/12/02 08:17:38;;;;;;;14.25;8.98;;;5.30;99.90;;;;;;4933519;29;20176;-69
2022/12/02 08:20:06;;;;;;;14.65;9.05;;;5.30;99.90;;;;;;4937638;29;20177;-70
2022/12/02 08:22:31;;;;;;;11.82;9.15;;;5.30;99.90;;;;;;4935941;29;20177;-68
2022/12/02 08:24:57;;;;;;;14.37;8.77;;;5.30;99.90;;;;;;4937188;29;20200;-68
2022/12/02 08:27:23;;;;;;;17.60;9.70;;;5.30;99.90;;;;;;4937513;29;20522;-66
2022/12/02 08:29:49;;;;;;;14.67;9.60;;;5.30;99.90;;;;;;4937341;29;20565;-69
2022/12/02 08:32:15;;;;;;;12.65;8.52;;;5.30;99.90;;;;;;4936064;29;20646;-70
2022/12/02 08:34:41;;;;;;;17.50;9.90;;;5.30;99.90;;;;;;4936990;29;20223;-68
2022/12/02 08:37:07;;;;;;;19.70;9.13;;;5.30;99.90;;;;;;4937117;29;20173;-69
2022/12/02 08:39:33;;;;;;;18.83;10.30;;;5.20;99.90;;;;;;4937458;29;20545;-66
2022/12/02 08:41:59;;;;;;;20.53;8.67;;;5.20;99.90;;;;;;4937399;29;20413;-66
2022/12/02 08:44:24;;;;;;;14.25;7.88;;;5.20;99.90;;;;;;4936831;29;20569;-69
2022/12/02 08:46:50;;;;;;;10.50;7.20;;;5.10;99.90;;;;;;4936095;29;20185;-70
2022/12/02 08:49:16;;;;;;;14.20;9.30;;;5.10;99.90;;;;;;4937192;29;20201;-68
2022/12/02 08:51:42;;;;;;;15.47;9.23;;;5.10;99.90;;;;;;4935804;29;20568;-69
2022/12/02 08:54:08;;;;;;;13.80;8.03;;;5.10;99.90;;;;;;4935573;29;20574;-68
2022/12/02 08:56:33;;;;;;;11.57;7.73;;;5.10;99.90;;;;;;4936034;29;20634;-70
2022/12/02 08:58:59;;;;;;;17.83;10.47;;;5.10;99.90;;;;;;4934963;29;20637;-68
2022/12/02 09:01:24;;;;;;;17.27;8.43;;;5.10;99.90;;;;;;4935071;29;20177;-68
2022/12/02 09:03:50;;;;;;;12.80;8.10;;;5.10;99.90;;;;;;4935362;29;20197;-68
2022/12/02 09:06:16;;;;;;;15.20;8.93;;;5.10;99.90;;;;;;4935967;29;20205;-69
2022/12/02 09:08:41;;;;;;;12.40;8.80;;;5.20;99.90;;;;;;4935497;29;20207;-68
2022/12/02 09:11:07;;;;;;;7.73;4.77;;;5.30;99.90;;;;;;4936897;29;20176;-68
2022/12/02 09:13:33;;;;;;;12.53;8.13;;;5.20;99.90;;;;;;4936344;29;20174;-68
2022/12/02 09:15:59;;;;;;;9.63;6.47;;;5.20;99.90;;;;;;4935579;29;20504;-68
2022/12/02 09:18:24;;;;;;;10.70;7.00;;;5.20;99.90;;;;;;4934738;29;20170;-70
2022/12/02 09:20:50;;;;;;;7.47;5.70;;;5.20;99.90;;;;;;4934628;29;20181;-69
2022/12/02 09:23:15;;;;;;;13.23;7.70;;;5.20;99.90;;;;;;4934374;29;20185;-68
2022/12/02 09:25:41;;;;;;;12.50;7.43;;;5.30;99.90;;;;;;4934613;29;20199;-69
2022/12/02 09:28:06;;;;;;;11.07;6.50;;;5.30;99.90;;;;;;4934623;29;20208;-71
2022/12/02 09:30:32;;;;;;;9.43;6.00;;;5.30;99.90;;;;;;4935065;29;20249;-69
2022/12/02 09:32:58;;;;;;;7.77;5.60;;;5.30;99.90;;;;;;4936150;29;20541;-70
2022/12/02 09:35:23;;;;;;;10.20;7.17;;;5.30;99.90;;;;;;4936434;29;20275;-69
2022/12/02 09:37:49;;;;;;;9.97;6.80;;;5.30;99.90;;;;;;4936501;29;20177;-69
2022/12/02 09:40:15;;;;;;;9.73;6.30;;;5.30;99.90;;;;;;4936477;29;20178;-69
2022/12/02 09:42:41;;;;;;;8.90;5.90;;;5.30;99.90;;;;;;4934955;29;20548;-68
2022/12/02 09:45:06;;;;;;;9.73;6.57;;;5.30;99.90;;;;;;4936242;29;20204;-69
2022/12/02 09:47:33;;;;;;;11.60;7.90;;;5.30;99.90;;;;;;4936262;29;20178;-68
2022/12/02 09:49:58;;;;;;;7.63;5.75;;;5.40;99.90;;;;;;4936350;29;20312;-69
2022/12/02 09:52:25;;;;;;;10.50;7.53;;;5.40;99.90;;;;;;4936272;29;20275;-68
2022/12/02 09:54:52;;;;;;;12.30;6.00;;;5.40;99.90;;;;;;4935974;29;20190;-69
2022/12/02 09:57:21;;;;;;;9.32;6.60;;;5.40;99.90;;;;;;4936321;29;20678;-70
2022/12/02 09:59:46;;;;;;;8.80;6.40;;;5.40;99.90;;;;;;4936075;29;20183;-71
2022/12/02 10:02:49;;;;;;;6.53;4.93;;;5.40;99.90;;;;;;4936384;29;20173;-71
2022/12/02 10:05:26;;;;;;;10.98;6.38;;;5.40;99.90;;;;;;4948298;28;20571;-69
2022/12/02 10:07:55;;;;;;;7.78;5.55;;;5.40;99.90;;;;;;4934638;29;20181;-67
2022/12/02 10:10:24;;;;;;;10.45;7.05;;;5.40;99.90;;;;;;4934294;29;20212;-67
2022/12/02 10:12:50;;;;;;;8.82;5.15;;;5.40;99.90;;;;;;4935716;29;20189;-70
2022/12/02 10:15:21;;;;;;;8.30;5.85;;;5.50;99.90;;;;;;4938135;29;20191;-68
2022/12/02 10:17:48;;;;;;;9.57;6.18;;;5.50;99.90;;;;;;4938770;29;20292;-69
2022/12/02 10:20:18;;;;;;;6.17;4.90;;;5.50;99.90;;;;;;4939999;29;20211;-67
2022/12/02 10:23:10;;;;;;;8.68;5.82;;;5.50;99.90;;;;;;4939200;29;20450;-68
2022/12/02 10:25:37;;;;;;;5.97;4.70;;;5.40;99.90;;;;;;4939771;29;20195;-70
2022/12/02 10:28:03;;;;;;;7.68;5.78;;;5.40;99.90;;;;;;4938660;29;20182;-69
2022/12/02 10:30:30;;;;;;;7.20;5.38;;;5.40;99.90;;;;;;4939589;29;20276;-69
2022/12/02 10:33:00;;;;;;;7.13;5.22;;;5.40;99.90;;;;;;4939434;29;20173;-68
2022/12/02 10:35:27;;;;;;;10.32;6.45;;;5.40;99.90;;;;;;4939579;29;20257;-69
2022/12/02 10:37:53;;;;;;;11.50;7.07;;;5.40;99.90;;;;;;4939503;29;20532;-67
2022/12/02 10:40:21;;;;;;;8.87;6.23;;;5.50;99.90;;;;;;4938500;29;20178;-67
2022/12/02 10:43:07;;;;;;;10.88;7.03;;;5.40;99.90;;;;;;4939195;29;20177;-68
2022/12/02 10:45:32;;;;;;;10.52;5.50;;;5.40;99.90;;;;;;4939343;29;20193;-67
2022/12/02 10:48:14;;;;;;;9.10;6.13;;;5.40;99.90;;;;;;4939542;29;20535;-68
2022/12/02 10:50:40;;;;;;;7.55;5.93;;;5.40;99.90;;;;;;4939305;29;20632;-67
2022/12/02 10:53:13;;;;;;;8.60;6.00;;;5.40;99.90;;;;;;4939101;29;20177;-69
2022/12/02 10:55:39;;;;;;;8.70;5.85;;;5.40;99.90;;;;;;4939477;29;20186;-68
2022/12/02 10:58:09;;;;;;;5.00;4.25;;;5.40;99.90;;;;;;4939408;29;20982;-70
2022/12/02 11:00:34;;;;;;;10.40;5.75;;;5.40;99.90;;;;;;4939523;29;20173;-69
2022/12/02 11:03:04;;;;;;;8.47;6.03;;;5.40;99.90;;;;;;4938927;29;20180;-66
2022/12/02 11:05:34;;;;;;;8.20;4.57;;;5.40;99.90;;;;;;4938963;29;20716;-65
2022/12/02 11:08:27;;;;;;;7.20;6.50;;;5.40;99.90;;;;;;4939252;29;20183;-69
2022/12/02 11:11:28;;;;;;;8.18;6.20;;;5.30;99.90;;;;;;4939210;29;20192;-64
2022/12/02 11:14:04;;;;;;;7.25;4.93;;;5.40;99.90;;;;;;4917586;29;20204;-66
2022/12/02 11:16:35;;;;;;;4.60;4.20;;;5.40;99.90;;;;;;4936222;29;20275;-65
2022/12/02 11:19:03;;;;;;;6.13;5.53;;;5.40;99.90;;;;;;4938867;29;20188;-67
2022/12/02 11:21:29;;;;;;;7.72;6.25;;;5.40;99.90;;;;;;4939350;29;20182;-68
2022/12/02 11:24:22;;;;;;;8.17;5.33;;;5.50;99.90;;;;;;4938499;29;20248;-68
2022/12/02 11:27:03;;;;;;;6.00;5.20;;;5.40;99.90;;;;;;4938294;29;20179;-67
2022/12/02 11:29:40;;;;;;;8.70;5.28;;;5.40;99.90;;;;;;4938849;29;20219;-65
2022/12/02 11:32:25;;;;;;;7.75;4.50;;;5.50;99.90;;;;;;4938697;29;20643;-63
2022/12/02 11:34:58;;;;;;;5.93;4.90;;;5.40;99.90;;;;;;4937868;29;20195;-67
2022/12/02 11:37:33;;;;;;;5.97;3.85;;;5.40;99.90;;;;;;4938484;29;20195;-66
2022/12/02 11:40:27;;;;;;;5.10;4.55;;;5.40;99.90;;;;;;4938521;29;20172;-67
2022/12/02 11:43:31;;;;;;;6.53;4.28;;;5.40;99.90;;;;;;4938144;29;20181;-67
2022/12/02 11:45:58;;;;;;;4.60;4.00;;;5.40;99.90;;;;;;4938512;29;20187;-66
2022/12/02 11:48:23;;;;;;;5.13;4.28;;;5.40;99.90;;;;;;4938348;29;20267;-70
2022/12/02 11:50:49;;;;;;;7.57;4.77;;;5.40;99.90;;;;;;4937753;29;20252;-69
2022/12/02 11:53:17;;;;;;;6.80;4.50;;;5.40;99.90;;;;;;4937975;29;20188;-68
2022/12/02 11:55:48;;;;;;;6.05;4.10;;;5.30;99.90;;;;;;4938226;29;20273;-68
2022/12/02 11:58:24;;;;;;;7.28;4.13;;;5.20;99.90;;;;;;4938200;29;20199;-65
2022/12/02 12:01:02;;;;;;;5.55;3.80;;;5.20;99.90;;;;;;4938202;29;20184;-65
2022/12/02 12:03:28;;;;;;;5.65;3.78;;;5.10;99.90;;;;;;4937192;29;20662;-66
2022/12/02 12:06:13;;;;;;;8.15;5.00;;;5.20;99.90;;;;;;4937759;29;20193;-66
2022/12/02 12:08:43;;;;;;;4.32;3.92;;;5.20;99.90;;;;;;4937603;29;20579;-66
2022/12/02 12:11:20;;;;;;;6.78;4.82;;;5.20;99.90;;;;;;4937722;29;20180;-66
2022/12/02 12:14:10;;;;;;;7.30;5.13;;;5.20;99.90;;;;;;4937155;29;20216;-68
2022/12/02 12:16:39;;;;;;;5.55;3.65;;;5.30;99.90;;;;;;4937742;29;20209;-70
2022/12/02 12:19:10;;;;;;;5.85;4.38;;;5.30;99.90;;;;;;4937127;29;20582;-67
2022/12/02 12:21:45;;;;;;;7.30;4.55;;;5.30;99.90;;;;;;4937555;29;20174;-70
2022/12/02 12:24:17;;;;;;;5.32;4.57;;;5.30;99.90;;;;;;4937459;29;20196;-66
2022/12/02 12:26:56;;;;;;;5.13;4.25;;;5.30;99.90;;;;;;4937396;29;20180;-67
2022/12/02 12:29:27;;;;;;;7.53;4.32;;;5.30;99.90;;;;;;4937673;29;20721;-67
2022/12/02 12:31:53;;;;;;;6.38;3.95;;;5.30;99.90;;;;;;4937413;29;20659;-69
2022/12/02 12:34:18;;;;;;;5.45;4.95;;;5.30;99.90;;;;;;4937090;29;20203;-68
2022/12/02 12:36:45;;;;;;;4.93;4.50;;;5.30;99.90;;;;;;4937349;29;20180;-69
2022/12/02 12:39:11;;;;;;;5.95;4.45;;;5.30;99.90;;;;;;4936081;29;20417;-66
2022/12/02 12:41:37;;;;;;;4.63;4.13;;;5.30;99.90;;;;;;4936551;29;20191;-66
2022/12/02 12:44:04;;;;;;;7.67;4.73;;;5.30;99.90;;;;;;4936446;29;20281;-67
2022/12/02 12:46:29;;;;;;;4.82;4.43;;;5.30;99.90;;;;;;4935885;29;20974;-69
2022/12/02 12:48:55;;;;;;;5.43;3.67;;;5.30;99.90;;;;;;4935333;29;20292;-68
2022/12/02 12:51:21;;;;;;;4.83;3.43;;;5.30;99.90;;;;;;4935583;29;20431;-72
2022/12/02 12:53:46;;;;;;;3.70;3.30;;;5.30;99.90;;;;;;4936325;29;20444;-67
2022/12/02 12:56:12;;;;;;;8.23;4.00;;;5.30;99.90;;;;;;4936681;29;20268;-68
2022/12/02 12:58:38;;;;;;;6.50;5.50;;;5.30;99.90;;;;;;4935563;29;20188;-70
2022/12/02 13:01:03;;;;;;;3.33;3.00;;;5.20;99.90;;;;;;4936748;29;20264;-67
2022/12/02 13:03:29;;;;;;;3.60;3.10;;;5.20;99.90;;;;;;4936339;29;20321;-68
2022/12/02 13:05:54;;;;;;;5.27;4.30;;;5.20;99.90;;;;;;4936198;29;20241;-67
2022/12/02 13:08:20;;;;;;;4.60;3.63;;;5.20;99.90;;;;;;4935272;29;20268;-70
2022/12/02 13:10:46;;;;;;;3.47;3.13;;;5.20;99.90;;;;;;4936725;29;20567;-66
2022/12/02 13:13:11;;;;;;;4.03;3.63;;;5.20;99.90;;;;;;4936274;29;20661;-68
2022/12/02 13:15:37;;;;;;;6.60;3.87;;;5.20;99.90;;;;;;4936469;29;20201;-68
2022/12/02 13:18:03;;;;;;;3.30;3.00;;;5.10;99.90;;;;;;4936498;29;20347;-70
2022/12/02 13:20:29;;;;;;;4.13;2.60;;;5.10;99.90;;;;;;4936661;29;20213;-68
2022/12/02 13:22:54;;;;;;;3.97;2.80;;;5.10;99.90;;;;;;4935734;29;20947;-70
2022/12/02 13:25:20;;;;;;;3.30;2.43;;;5.10;99.90;;;;;;4936400;29;20207;-69
2022/12/02 13:27:45;;;;;;;3.70;3.37;;;5.10;99.90;;;;;;4936846;29;20668;-68
2022/12/02 13:30:14;;;;;;;4.43;3.63;;;5.10;99.90;;;;;;4936634;29;20208;-68
2022/12/02 13:32:40;;;;;;;4.80;3.60;;;5.10;99.90;;;;;;4936225;29;20173;-70
2022/12/02 13:35:06;;;;;;;4.17;3.77;;;5.10;99.90;;;;;;4936199;29;20269;-69
2022/12/02 13:37:32;;;;;;;3.90;3.50;;;5.00;99.90;;;;;;4936248;29;20778;-69
2022/12/02 13:39:58;;;;;;;5.07;4.47;;;5.10;99.90;;;;;;4936547;29;20182;-69
2022/12/02 13:42:24;;;;;;;3.50;3.20;;;5.10;99.90;;;;;;4936329;29;20180;-67
2022/12/02 13:44:49;;;;;;;8.00;4.37;;;5.10;99.90;;;;;;4935654;29;20285;-67
2022/12/02 13:47:15;;;;;;;6.70;4.63;;;5.10;99.90;;;;;;4936613;29;20254;-67
2022/12/02 13:49:41;;;;;;;2.80;2.57;;;5.00;99.90;;;;;;4935795;29;20263;-68
2022/12/02 13:52:06;;;;;;;4.47;3.50;;;5.00;99.90;;;;;;4935634;29;20601;-68
2022/12/02 13:54:33;;;;;;;5.93;4.13;;;5.00;99.90;;;;;;4935474;29;20191;-69
2022/12/02 13:56:58;;;;;;;3.95;3.30;;;5.00;99.90;;;;;;4936035;29;20529;-66
2022/12/02 13:59:24;;;;;;;5.47;3.70;;;5.00;99.90;;;;;;4934730;29;20265;-70
2022/12/02 14:01:50;;;;;;;3.83;3.50;;;5.00;99.90;;;;;;4935919;29;20204;-68
2022/12/02 14:04:15;;;;;;;4.73;3.20;;;5.00;99.90;;;;;;4934094;29;20547;-70
2022/12/02 14:06:41;;;;;;;3.93;2.80;;;5.00;99.90;;;;;;4935174;29;20201;-70
2022/12/02 14:09:06;;;;;;;6.27;3.57;;;5.00;99.90;;;;;;4935807;29;20189;-68
2022/12/02 14:11:32;;;;;;;3.50;3.20;;;4.90;99.90;;;;;;4936007;29;20169;-68
2022/12/02 14:13:58;;;;;;;3.47;2.60;;;4.90;99.90;;;;;;4935497;29;20193;-68
2022/12/02 14:16:23;;;;;;;4.00;3.43;;;4.90;99.90;;;;;;4935847;29;20170;-69
2022/12/02 14:18:49;;;;;;;4.17;3.77;;;4.90;99.90;;;;;;4935963;29;20500;-67
2022/12/02 14:21:15;;;;;;;2.93;2.63;;;4.90;99.90;;;;;;4935652;29;20269;-68
2022/12/02 14:23:40;;;;;;;5.23;4.13;;;4.90;99.90;;;;;;4935417;29;20178;-69
2022/12/02 14:26:06;;;;;;;4.10;3.23;;;4.90;99.90;;;;;;4935928;29;20174;-68
2022/12/02 14:28:32;;;;;;;3.77;3.47;;;4.90;99.90;;;;;;4935461;29;20692;-71
2022/12/02 14:30:57;;;;;;;5.43;4.93;;;4.90;99.90;;;;;;4935440;29;20332;-69
2022/12/02 14:33:23;;;;;;;5.13;4.20;;;4.90;99.90;;;;;;4935193;29;20249;-69
2022/12/02 14:35:48;;;;;;;3.90;3.47;;;4.90;99.90;;;;;;4935730;29;20269;-69
2022/12/02 14:38:14;;;;;;;6.33;3.90;;;4.90;99.90;;;;;;4935510;29;20182;-67
2022/12/02 14:40:40;;;;;;;3.80;3.50;;;4.90;99.90;;;;;;4935225;29;20171;-69
2022/12/02 14:43:06;;;;;;;10.75;4.60;;;4.90;99.90;;;;;;4935019;29;20226;-68
2022/12/02 14:45:31;;;;;;;5.53;3.80;;;4.90;99.90;;;;;;4935189;29;20623;-70
2022/12/02 14:47:57;;;;;;;4.70;4.23;;;4.90;99.90;;;;;;4935680;29;20417;-69
2022/12/02 14:50:26;;;;;;;2.97;2.67;;;4.90;99.90;;;;;;4933746;29;20213;-70
2022/12/02 14:52:52;;;;;;;4.50;3.83;;;4.90;99.90;;;;;;4935237;29;20546;-69
2022/12/02 14:55:18;;;;;;;6.68;4.45;;;4.90;99.90;;;;;;4935511;29;20237;-71
2022/12/02 14:57:44;;;;;;;5.17;4.50;;;4.90;99.90;;;;;;4935453;29;20211;-69
2022/12/02 15:00:11;;;;;;;6.40;3.93;;;4.90;99.90;;;;;;4934707;29;20538;-69
2022/12/02 15:02:37;;;;;;;5.15;4.47;;;4.90;99.90;;;;;;4936775;29;20561;-67
2022/12/02 15:05:06;;;;;;;7.23;3.90;;;4.90;99.90;;;;;;4938672;29;20201;-70
2022/12/02 15:07:32;;;;;;;4.72;4.15;;;4.80;99.90;;;;;;4938776;29;20166;-69
2022/12/02 15:09:58;;;;;;;3.23;2.97;;;4.80;99.90;;;;;;4938782;29;20248;-70
2022/12/02 15:12:23;;;;;;;4.75;4.30;;;4.80;99.90;;;;;;4938295;29;20182;-68
2022/12/02 15:14:49;;;;;;;5.60;4.40;;;4.70;99.90;;;;;;4938119;29;20673;-69
2022/12/02 15:17:15;;;;;;;8.40;4.00;;;4.70;99.90;;;;;;4938747;29;20180;-66
2022/12/02 15:19:41;;;;;;;4.27;3.57;;;4.70;99.90;;;;;;4938350;29;20414;-69
2022/12/02 15:22:06;;;;;;;6.00;3.97;;;4.70;99.90;;;;;;4937810;29;20419;-68
2022/12/02 15:24:32;;;;;;;4.33;3.83;;;4.60;99.90;;;;;;4937690;29;20207;-71
2022/12/02 15:27:00;;;;;;;6.60;4.87;;;4.60;99.90;;;;;;4938539;29;20169;-67
2022/12/02 15:29:26;;;;;;;4.80;4.28;;;4.60;99.90;;;;;;4936852;29;20205;-68
2022/12/02 15:31:51;;;;;;;4.83;4.00;;;4.60;99.90;;;;;;4937965;29;20170;-69
2022/12/02 15:34:17;;;;;;;6.63;4.63;;;4.60;99.90;;;;;;4936500;29;20194;-67
2022/12/02 15:36:43;;;;;;;6.37;5.20;;;4.60;99.90;;;;;;4936860;29;20185;-70
2022/12/02 15:39:09;;;;;;;4.88;4.47;;;4.60;99.90;;;;;;4937872;29;20181;-69
2022/12/02 15:41:34;;;;;;;4.40;4.03;;;4.60;99.90;;;;;;4938083;29;20260;-69
2022/12/02 15:44:00;;;;;;;7.37;4.63;;;4.70;99.90;;;;;;4937338;29;20233;-68
2022/12/02 15:46:25;;;;;;;5.03;3.80;;;4.70;99.90;;;;;;4938047;29;20173;-71
2022/12/02 15:48:51;;;;;;;4.27;3.77;;;4.70;99.90;;;;;;4936556;29;20202;-67
2022/12/02 15:51:17;;;;;;;5.90;5.10;;;4.70;99.90;;;;;;4936342;29;20175;-70
2022/12/02 15:53:44;;;;;;;5.75;4.78;;;4.70;99.90;;;;;;4937445;29;20218;-68
2022/12/02 15:56:11;;;;;;;5.53;4.55;;;4.60;99.90;;;;;;4937933;29;20190;-70
2022/12/02 15:58:37;;;;;;;5.93;4.35;;;4.60;99.90;;;;;;4938101;29;20168;-66
2022/12/02 16:01:02;;;;;;;8.53;5.13;;;4.60;99.90;;;;;;4937667;29;20626;-66
2022/12/02 16:03:28;;;;;;;5.40;4.50;;;4.60;99.90;;;;;;4937109;29;20628;-70
2022/12/02 16:05:54;;;;;;;11.40;4.17;;;4.60;99.90;;;;;;4937589;29;20193;-69
2022/12/02 16:08:20;;;;;;;6.20;4.20;;;4.60;99.90;;;;;;4937668;29;20176;-70
2022/12/02 16:10:46;;;;;;;5.30;4.73;;;4.60;99.90;;;;;;4937786;29;20213;-69
2022/12/02 16:13:11;;;;;;;6.57;5.90;;;4.60;99.90;;;;;;4936845;29;20444;-71
2022/12/02 16:15:37;;;;;;;5.13;4.67;;;4.60;99.90;;;;;;4937561;29;20715;-67
2022/12/02 16:18:04;;;;;;;10.25;5.70;;;4.60;99.90;;;;;;4937481;29;20214;-72
2022/12/02 16:20:30;;;;;;;8.30;5.63;;;4.60;99.90;;;;;;4937649;29;20277;-69
2022/12/02 16:22:55;;;;;;;9.07;5.67;;;4.60;99.90;;;;;;4936681;29;20231;-68
2022/12/02 16:25:21;;;;;;;7.77;5.83;;;4.60;99.90;;;;;;4937322;29;20442;-67
2022/12/02 16:27:46;;;;;;;7.70;6.97;;;4.50;99.90;;;;;;4937317;29;20202;-70
2022/12/02 16:30:12;;;;;;;8.70;5.20;;;4.60;99.90;;;;;;4937113;29;20201;-69
2022/12/02 16:32:38;;;;;;;7.57;5.57;;;4.60;99.90;;;;;;4936572;29;20204;-68
2022/12/02 16:35:04;;;;;;;8.00;5.70;;;4.60;99.90;;;;;;4937057;29;20333;-70
2022/12/02 16:37:29;;;;;;;9.87;6.50;;;4.60;99.90;;;;;;4937316;29;20174;-69
2022/12/02 16:39:55;;;;;;;8.93;5.97;;;4.60;99.90;;;;;;4937182;29;20406;-69
2022/12/02 16:42:20;;;;;;;11.20;7.60;;;4.60;99.90;;;;;;4937309;29;20229;-67
2022/12/02 16:44:46;;;;;;;9.23;6.20;;;4.60;99.90;;;;;;4936581;29;20725;-71
2022/12/02 16:47:12;;;;;;;9.20;6.03;;;4.60;99.90;;;;;;4937598;29;20177;-66
2022/12/02 16:49:37;;;;;;;7.43;5.27;;;4.60;99.90;;;;;;4937504;29;20670;-71
2022/12/02 16:52:03;;;;;;;8.47;6.20;;;4.60;99.90;;;;;;4937377;29;20766;-70
2022/12/02 16:54:29;;;;;;;8.17;5.33;;;4.60;99.90;;;;;;4936367;29;20229;-69
2022/12/02 16:56:54;;;;;;;7.70;6.50;;;4.50;99.90;;;;;;4937081;28;20584;-70
2022/12/02 16:59:21;;;;;;;5.43;3.90;;;4.60;99.90;;;;;;4937321;29;20205;-69
2022/12/02 17:01:46;;;;;;;8.10;6.35;;;4.50;99.90;;;;;;4935927;29;20208;-69
2022/12/02 17:04:12;;;;;;;6.03;5.43;;;4.50;99.90;;;;;;4936098;29;20201;-68
2022/12/02 17:06:37;;;;;;;9.60;4.60;;;4.50;99.90;;;;;;4937361;29;20630;-69
2022/12/02 17:09:03;;;;;;;7.23;6.53;;;4.60;99.90;;;;;;4936286;29;20205;-67
2022/12/02 17:11:29;;;;;;;6.63;4.83;;;4.60;99.90;;;;;;4936860;29;20178;-68
2022/12/02 17:13:54;;;;;;;6.83;4.90;;;4.50;99.90;;;;;;4936357;29;20190;-68
2022/12/02 17:16:20;;;;;;;7.53;6.60;;;4.50;99.90;;;;;;4936376;29;20324;-69
2022/12/02 17:18:46;;;;;;;7.53;6.10;;;4.50;99.90;;;;;;4936720;29;20255;-67
2022/12/02 17:21:11;;;;;;;5.17;4.50;;;4.50;99.90;;;;;;4936796;29;20268;-69
2022/12/02 17:23:37;;;;;;;7.27;4.73;;;4.50;99.90;;;;;;4936390;29;20173;-68
2022/12/02 17:26:02;;;;;;;6.50;5.03;;;4.50;99.90;;;;;;4936643;29;20173;-68
2022/12/02 17:28:28;;;;;;;6.00;5.40;;;4.50;99.90;;;;;;4937759;29;20205;-69
2022/12/02 17:30:54;;;;;;;7.30;5.70;;;4.50;99.90;;;;;;4937246;29;20201;-69
2022/12/02 17:33:19;;;;;;;6.07;5.07;;;4.50;99.90;;;;;;4937283;29;20685;-70
2022/12/02 17:35:45;;;;;;;9.20;6.00;;;4.50;99.90;;;;;;4937450;29;20429;-67
2022/12/02 17:38:10;;;;;;;7.70;6.03;;;4.50;99.90;;;;;;4936341;29;20181;-69
2022/12/02 17:40:36;;;;;;;7.00;4.90;;;4.50;99.90;;;;;;4937890;29;20204;-70
2022/12/02 17:43:01;;;;;;;11.60;5.43;;;4.50;99.90;;;;;;4937168;29;20178;-70
2022/12/02 17:45:27;;;;;;;6.60;5.07;;;4.50;99.90;;;;;;4937994;29;20246;-66
2022/12/02 17:47:53;;;;;;;6.03;5.37;;;4.40;99.90;;;;;;4941085;29;20174;-70
2022/12/02 17:50:18;;;;;;;8.37;5.60;;;4.40;99.90;;;;;;4936989;29;20241;-67
2022/12/02 17:52:44;;;;;;;5.30;4.77;;;4.40;99.90;;;;;;4936183;29;20173;-70
2022/12/02 17:55:09;;;;;;;6.20;5.33;;;4.40;99.90;;;;;;4936195;29;20666;-71
2022/12/02 17:57:35;;;;;;;6.27;4.80;;;4.40;99.90;;;;;;4936464;29;20180;-68
2022/12/02 18:00:01;;;;;;;6.27;4.87;;;4.40;99.90;;;;;;4936369;29;20169;-71